Time;durP1;ratioP1;P1;durP2;ratioP2;P2;SDS_P1;SDS_P2;PMS_P1;PMS_P2;Temp;Humidity;BMP_temperature;BMP_pressure;BME280_temperature;BME280_humidity;BME280_pressure;Samples;Min_cycle;Max_cycle;Signal;HPM_P1;HPM_P2
2023/03/09 00:00:46;;;;;;;10.93;6.40;;;;;;;;;;5128948;27;20073;-43
2023/03/09 00:03:15;;;;;;;9.63;6.13;;;;;;;;;;5130052;27;20501;-42
2023/03/09 00:05:43;;;;;;;9.50;6.72;;;;;;;;;;5129407;27;20036;-43
2023/03/09 00:08:09;;;;;;;8.55;5.78;;;;;;;;;;5129960;27;20028;-43
2023/03/09 00:10:38;;;;;;;8.48;6.07;;;;;;;;;;5129555;27;20220;-43
2023/03/09 00:13:05;;;;;;;9.07;6.20;;;;;;;;;;5128018;27;20447;-44
2023/03/09 00:15:32;;;;;;;9.77;6.15;;;;;;;;;;5109131;28;20112;-43
2023/03/09 00:17:58;;;;;;;10.30;6.72;;;;;;;;;;5108467;28;20027;-44
2023/03/09 00:20:24;;;;;;;9.95;6.55;;;;;;;;;;5108790;28;20524;-43
2023/03/09 00:22:51;;;;;;;11.10;6.65;;;;;;;;;;5108790;28;20067;-44
2023/03/09 00:25:18;;;;;;;11.75;6.18;;;;;;;;;;5108934;28;20507;-43
2023/03/09 00:27:47;;;;;;;8.35;6.00;;;;;;;;;;5108829;28;20030;-42
2023/03/09 00:30:13;;;;;;;10.75;6.85;;;;;;;;;;5108716;28;20020;-42
2023/03/09 00:32:40;;;;;;;9.65;6.65;;;;;;;;;;5108707;28;20464;-44
2023/03/09 00:35:08;;;;;;;10.93;6.85;;;;;;;;;;5108432;28;20016;-44
2023/03/09 00:37:34;;;;;;;14.30;7.18;;;;;;;;;;5108672;28;20027;-43
2023/03/09 00:40:01;;;;;;;10.10;6.85;;;;;;;;;;5108520;28;20383;-43
2023/03/09 00:42:27;;;;;;;10.27;6.80;;;;;;;;;;5108465;28;20538;-43
2023/03/09 00:44:54;;;;;;;10.95;7.40;;;;;;;;;;5108711;28;20027;-42
2023/03/09 00:47:20;;;;;;;12.77;7.13;;;;;;;;;;5106981;28;20028;-42
2023/03/09 00:49:46;;;;;;;13.55;6.35;;;;;;;;;;5108373;28;20023;-42
2023/03/09 00:52:12;;;;;;;10.57;6.95;;;;;;;;;;5107932;28;20049;-42
2023/03/09 00:54:38;;;;;;;11.43;6.53;;;;;;;;;;5109340;28;20390;-43
2023/03/09 00:57:04;;;;;;;9.25;6.70;;;;;;;;;;5108112;28;20111;-42
2023/03/09 00:59:30;;;;;;;10.32;6.78;;;;;;;;;;5108440;28;20028;-42
2023/03/09 01:01:56;;;;;;;10.73;6.43;;;;;;;;;;5107937;28;20036;-42
2023/03/09 01:04:22;;;;;;;9.30;7.05;;;;;;;;;;5107724;28;20560;-42
2023/03/09 06:11:19;;;;;;;8.30;3.85;;;;;;;;;;5109514;27;20145;-42
2023/03/09 06:13:45;;;;;;;7.10;3.72;;;;;;;;;;5119817;27;20071;-42
2023/03/09 06:16:13;;;;;;;6.60;3.33;;;;;;;;;;5108440;28;20073;-42
2023/03/09 06:18:39;;;;;;;4.70;2.88;;;;;;;;;;5108326;28;20091;-42
2023/03/09 06:21:06;;;;;;;6.05;3.00;;;;;;;;;;5108179;28;20031;-42
2023/03/09 06:23:35;;;;;;;4.63;2.85;;;;;;;;;;5108141;28;20152;-42
2023/03/09 06:26:02;;;;;;;4.93;2.42;;;;;;;;;;5108217;28;20775;-42
2023/03/09 06:28:28;;;;;;;4.57;2.67;;;;;;;;;;5107805;28;20027;-42
2023/03/09 06:30:54;;;;;;;4.18;2.20;;;;;;;;;;5107547;28;20107;-42
2023/03/09 06:33:20;;;;;;;3.75;2.42;;;;;;;;;;5107969;28;20027;-42
2023/03/09 06:35:45;;;;;;;4.75;2.40;;;;;;;;;;5107664;28;20027;-42
2023/03/09 06:38:12;;;;;;;3.28;2.00;;;;;;;;;;5107839;28;20024;-42
2023/03/09 06:40:37;;;;;;;3.33;2.15;;;;;;;;;;5107882;28;20050;-42
2023/03/09 06:43:04;;;;;;;3.58;1.83;;;;;;;;;;5108098;28;20023;-42
2023/03/09 06:45:29;;;;;;;3.67;2.03;;;;;;;;;;5107321;28;20035;-42
2023/03/09 06:47:56;;;;;;;4.47;2.13;;;;;;;;;;5107589;28;20038;-42
2023/03/09 06:50:24;;;;;;;3.40;1.90;;;;;;;;;;5106827;28;20042;-42
2023/03/09 06:52:52;;;;;;;2.50;1.77;;;;;;;;;;5108001;28;20027;-42
2023/03/09 06:55:18;;;;;;;3.88;1.85;;;;;;;;;;5106732;28;20445;-42
2023/03/09 06:57:44;;;;;;;3.42;1.90;;;;;;;;;;5107818;28;20027;-42
2023/03/09 07:00:11;;;;;;;2.80;1.80;;;;;;;;;;5106998;28;20027;-42
2023/03/09 07:02:38;;;;;;;3.75;1.98;;;;;;;;;;5107596;28;20030;-42
2023/03/09 07:05:06;;;;;;;2.88;1.58;;;;;;;;;;5107895;28;20035;-42
2023/03/09 07:07:32;;;;;;;2.58;1.50;;;;;;;;;;5108768;28;20042;-42
2023/03/09 07:09:58;;;;;;;3.22;2.08;;;;;;;;;;5108238;28;20023;-42
2023/03/09 07:12:24;;;;;;;3.70;1.95;;;;;;;;;;5108535;28;20716;-42
2023/03/09 07:14:50;;;;;;;5.75;2.22;;;;;;;;;;5131772;27;20043;-42
2023/03/09 07:17:16;;;;;;;4.22;2.25;;;;;;;;;;5128315;27;20643;-42
2023/03/09 07:19:42;;;;;;;3.30;2.30;;;;;;;;;;5129120;27;20506;-42
2023/03/09 07:22:10;;;;;;;6.93;2.47;;;;;;;;;;5128448;28;20026;-43
2023/03/09 07:24:37;;;;;;;3.95;2.85;;;;;;;;;;5127737;27;20079;-43
2023/03/09 07:27:03;;;;;;;6.18;2.30;;;;;;;;;;5128551;28;20398;-43
2023/03/09 07:29:29;;;;;;;3.63;2.20;;;;;;;;;;5128639;28;20030;-42
2023/03/09 07:31:55;;;;;;;3.08;2.00;;;;;;;;;;5128838;28;20020;-42
2023/03/09 07:34:21;;;;;;;4.88;2.42;;;;;;;;;;5129148;28;20023;-42
2023/03/09 07:36:48;;;;;;;3.10;2.13;;;;;;;;;;5128796;28;20019;-43
2023/03/09 07:39:14;;;;;;;3.42;2.15;;;;;;;;;;5129169;28;20510;-42
2023/03/09 07:41:41;;;;;;;3.47;2.47;;;;;;;;;;5129486;27;20023;-42
2023/03/09 07:44:08;;;;;;;5.68;3.05;;;;;;;;;;5129294;28;20031;-43
2023/03/09 07:46:34;;;;;;;4.07;2.53;;;;;;;;;;5128936;27;20023;-43
2023/03/09 07:49:00;;;;;;;5.10;3.10;;;;;;;;;;5128532;27;20058;-42
2023/03/09 07:51:26;;;;;;;4.47;2.85;;;;;;;;;;5128549;28;20019;-43
2023/03/09 07:53:52;;;;;;;6.20;3.22;;;;;;;;;;5128672;28;20168;-43
2023/03/09 07:56:18;;;;;;;6.40;3.70;;;;;;;;;;5128895;28;20098;-43
2023/03/09 07:58:46;;;;;;;7.68;3.97;;;;;;;;;;5128511;27;20038;-43
2023/03/09 08:01:16;;;;;;;7.13;3.20;;;;;;;;;;5129089;27;20034;-43
2023/03/09 08:03:43;;;;;;;8.93;3.70;;;;;;;;;;5133168;27;20485;-44
2023/03/09 08:06:09;;;;;;;7.15;3.03;;;;;;;;;;5128260;27;20770;-43
2023/03/09 08:08:36;;;;;;;5.90;3.63;;;;;;;;;;5131572;27;20160;-43
2023/03/09 08:11:03;;;;;;;7.35;3.97;;;;;;;;;;5130457;27;20019;-43
2023/03/09 08:13:29;;;;;;;7.35;4.00;;;;;;;;;;5127660;27;20147;-42
2023/03/09 08:15:55;;;;;;;6.35;4.38;;;;;;;;;;5128409;27;20539;-43
2023/03/09 08:18:21;;;;;;;9.65;4.65;;;;;;;;;;5126258;27;20051;-43
2023/03/09 08:20:47;;;;;;;8.60;4.43;;;;;;;;;;5129252;27;20023;-43
2023/03/09 08:23:13;;;;;;;9.25;4.10;;;;;;;;;;5130454;27;20031;-44
2023/03/09 08:25:39;;;;;;;6.75;3.75;;;;;;;;;;5130404;27;20398;-43
2023/03/09 08:28:05;;;;;;;7.30;4.05;;;;;;;;;;5129902;27;20474;-43
2023/03/09 08:30:31;;;;;;;7.82;4.28;;;;;;;;;;5129302;27;20394;-43
2023/03/09 08:32:58;;;;;;;6.07;4.20;;;;;;;;;;5129156;27;20027;-43
2023/03/09 08:35:28;;;;;;;8.07;4.18;;;;;;;;;;5130279;27;20558;-42
2023/03/09 08:37:54;;;;;;;8.07;3.80;;;;;;;;;;5130219;27;20489;-42
2023/03/09 08:40:21;;;;;;;8.27;4.22;;;;;;;;;;5130789;27;20351;-42
2023/03/09 08:42:47;;;;;;;7.68;3.60;;;;;;;;;;5130245;27;20033;-43
2023/03/09 08:45:13;;;;;;;9.38;4.20;;;;;;;;;;5130239;27;20023;-43
2023/03/09 08:47:39;;;;;;;7.18;4.07;;;;;;;;;;5130112;27;20038;-43
2023/03/09 08:50:06;;;;;;;9.77;4.78;;;;;;;;;;5128541;27;20074;-43
2023/03/09 08:52:37;;;;;;;6.82;3.97;;;;;;;;;;5130025;27;20118;-43
2023/03/09 08:55:04;;;;;;;7.60;4.40;;;;;;;;;;5130248;27;20427;-44
2023/03/09 08:57:30;;;;;;;8.70;3.90;;;;;;;;;;5129973;27;20035;-43
2023/03/09 08:59:56;;;;;;;8.00;3.95;;;;;;;;;;5130016;27;20562;-43
2023/03/09 09:02:23;;;;;;;10.05;4.55;;;;;;;;;;5143292;27;20022;-44
2023/03/09 09:04:49;;;;;;;7.57;4.07;;;;;;;;;;5150924;27;20031;-43
2023/03/09 09:07:15;;;;;;;7.70;4.05;;;;;;;;;;5141852;27;20548;-44
2023/03/09 09:09:42;;;;;;;8.18;4.28;;;;;;;;;;5124631;27;20655;-44
2023/03/09 09:12:09;;;;;;;9.02;3.95;;;;;;;;;;5130049;27;20019;-43
2023/03/09 09:14:37;;;;;;;5.05;3.25;;;;;;;;;;5130675;27;20031;-44
2023/03/09 09:17:06;;;;;;;7.82;3.88;;;;;;;;;;5130069;27;20035;-43
2023/03/09 09:19:34;;;;;;;6.82;3.53;;;;;;;;;;5117583;27;20374;-44
2023/03/09 09:22:00;;;;;;;7.93;3.70;;;;;;;;;;5129167;27;20360;-45
2023/03/09 09:24:26;;;;;;;4.97;2.95;;;;;;;;;;5129363;27;20022;-44
2023/03/09 09:26:55;;;;;;;4.93;3.00;;;;;;;;;;5130171;27;20062;-42
2023/03/09 09:29:21;;;;;;;5.53;3.08;;;;;;;;;;5129545;27;20379;-41
2023/03/09 09:31:50;;;;;;;4.65;2.88;;;;;;;;;;5129323;27;20034;-42
2023/03/09 09:34:17;;;;;;;7.38;2.97;;;;;;;;;;5128907;27;20486;-42
2023/03/09 09:36:44;;;;;;;4.82;2.78;;;;;;;;;;5129195;27;20536;-43
2023/03/09 09:39:12;;;;;;;4.82;2.60;;;;;;;;;;5128817;27;20059;-42
2023/03/09 09:41:40;;;;;;;5.97;2.78;;;;;;;;;;5129002;27;20031;-42
2023/03/09 09:44:10;;;;;;;4.15;2.55;;;;;;;;;;5128784;27;20038;-43
2023/03/09 09:46:39;;;;;;;4.82;2.55;;;;;;;;;;5129010;27;20027;-42
2023/03/09 09:49:05;;;;;;;5.13;2.63;;;;;;;;;;5127125;27;20462;-43
2023/03/09 09:51:34;;;;;;;8.05;2.60;;;;;;;;;;5128610;27;20024;-42
2023/03/09 09:54:11;;;;;;;4.47;2.00;;;;;;;;;;5128939;27;20034;-42
2023/03/09 09:56:42;;;;;;;3.72;1.98;;;;;;;;;;5128654;27;20518;-43
2023/03/09 09:59:13;;;;;;;6.78;2.70;;;;;;;;;;5128659;27;20031;-43
2023/03/09 10:01:45;;;;;;;6.63;2.78;;;;;;;;;;5128484;27;20523;-42
2023/03/09 10:04:26;;;;;;;5.55;2.58;;;;;;;;;;5128657;27;20526;-42
2023/03/09 10:06:54;;;;;;;5.50;2.33;;;;;;;;;;5127693;27;20106;-43
2023/03/09 10:09:23;;;;;;;4.70;2.20;;;;;;;;;;5128098;27;20118;-45
2023/03/09 10:11:57;;;;;;;5.07;2.17;;;;;;;;;;5128559;27;20020;-44
2023/03/09 10:14:26;;;;;;;5.97;2.17;;;;;;;;;;5120378;27;20023;-44
2023/03/09 10:16:56;;;;;;;5.72;2.47;;;;;;;;;;5107821;28;20023;-44
2023/03/09 10:19:29;;;;;;;4.35;2.30;;;;;;;;;;5114482;27;20028;-44
2023/03/09 10:22:06;;;;;;;6.07;2.40;;;;;;;;;;5121906;27;20391;-45
2023/03/09 10:24:35;;;;;;;6.68;2.55;;;;;;;;;;5127884;27;20035;-45
2023/03/09 10:27:05;;;;;;;3.42;2.30;;;;;;;;;;5128726;27;20099;-46
2023/03/09 10:29:43;;;;;;;5.25;2.92;;;;;;;;;;5126906;27;20034;-46
2023/03/09 10:32:16;;;;;;;7.72;2.42;;;;;;;;;;5127885;27;20550;-47
2023/03/09 10:34:53;;;;;;;7.20;2.55;;;;;;;;;;5128059;27;20038;-45
2023/03/09 10:37:22;;;;;;;4.35;2.50;;;;;;;;;;5126870;27;20035;-45
2023/03/09 10:39:49;;;;;;;4.78;2.28;;;;;;;;;;5127717;27;20047;-45
2023/03/09 10:42:21;;;;;;;5.28;2.08;;;;;;;;;;5127676;27;20028;-45
2023/03/09 10:44:57;;;;;;;4.30;2.60;;;;;;;;;;5127975;27;20037;-46
2023/03/09 10:47:24;;;;;;;3.75;2.28;;;;;;;;;;5124352;27;20027;-48
2023/03/09 10:50:09;;;;;;;6.15;2.70;;;;;;;;;;5124608;27;20289;-45
2023/03/09 10:52:35;;;;;;;4.45;2.15;;;;;;;;;;5125747;27;20096;-45
2023/03/09 10:55:21;;;;;;;3.33;2.58;;;;;;;;;;5128282;27;20031;-46
2023/03/09 10:58:01;;;;;;;7.22;2.63;;;;;;;;;;5128014;27;20379;-47
2023/03/09 11:00:28;;;;;;;5.65;2.15;;;;;;;;;;5125178;27;20023;-45
2023/03/09 11:03:01;;;;;;;4.90;2.10;;;;;;;;;;5128400;27;20110;-45
2023/03/09 11:05:29;;;;;;;2.65;2.00;;;;;;;;;;5128779;27;20118;-47
2023/03/09 11:07:57;;;;;;;4.90;2.70;;;;;;;;;;5127954;27;20038;-45
2023/03/09 11:10:24;;;;;;;3.97;2.40;;;;;;;;;;5124782;27;20076;-47
2023/03/09 11:12:50;;;;;;;4.00;2.35;;;;;;;;;;5125853;27;20023;-43
2023/03/09 11:15:16;;;;;;;5.85;2.30;;;;;;;;;;5127278;27;20498;-42
2023/03/09 11:17:46;;;;;;;4.63;2.40;;;;;;;;;;5127271;27;20031;-45
2023/03/09 11:20:12;;;;;;;3.10;2.00;;;;;;;;;;5120281;27;20035;-43
2023/03/09 11:22:44;;;;;;;4.97;2.20;;;;;;;;;;5107943;28;20066;-47
2023/03/09 11:25:29;;;;;;;3.50;1.98;;;;;;;;;;5107073;28;20414;-43
2023/03/09 11:27:59;;;;;;;4.40;2.08;;;;;;;;;;5125917;28;20062;-46
2023/03/09 11:30:27;;;;;;;4.47;2.30;;;;;;;;;;5127119;28;20023;-43
2023/03/09 11:32:53;;;;;;;5.85;2.42;;;;;;;;;;5127673;28;20410;-43
2023/03/09 11:35:22;;;;;;;4.80;2.30;;;;;;;;;;5126663;27;20517;-46
2023/03/09 11:37:57;;;;;;;2.35;2.03;;;;;;;;;;5130873;27;20023;-48
2023/03/09 11:40:25;;;;;;;4.93;2.20;;;;;;;;;;5131816;27;20027;-44
2023/03/09 11:42:57;;;;;;;4.93;2.50;;;;;;;;;;5131938;27;20020;-45
2023/03/09 11:45:24;;;;;;;5.13;2.80;;;;;;;;;;5132424;27;20088;-44
2023/03/09 11:47:55;;;;;;;4.18;2.38;;;;;;;;;;5131923;27;20097;-44
2023/03/09 11:50:23;;;;;;;4.53;2.20;;;;;;;;;;5131989;27;20466;-46
2023/03/09 11:52:56;;;;;;;3.78;2.17;;;;;;;;;;5131684;27;20034;-45
2023/03/09 11:55:32;;;;;;;4.65;2.15;;;;;;;;;;5128469;27;20019;-44
2023/03/09 11:58:00;;;;;;;3.40;2.17;;;;;;;;;;5131761;27;20031;-45
2023/03/09 12:00:29;;;;;;;2.78;1.80;;;;;;;;;;5114179;27;20114;-43
2023/03/09 12:02:55;;;;;;;3.60;2.03;;;;;;;;;;5132424;27;20031;-47
2023/03/09 12:05:23;;;;;;;4.65;2.60;;;;;;;;;;5131916;27;20023;-44
2023/03/09 12:07:59;;;;;;;3.45;2.20;;;;;;;;;;5131747;27;20088;-43
2023/03/09 12:10:45;;;;;;;3.83;2.38;;;;;;;;;;5132001;27;20015;-46
2023/03/09 12:13:25;;;;;;;3.88;2.47;;;;;;;;;;5078687;27;20039;-43
2023/03/09 12:16:09;;;;;;;4.95;2.00;;;;;;;;;;5131921;27;20023;-43
2023/03/09 12:18:39;;;;;;;5.28;2.33;;;;;;;;;;5131386;27;20031;-44
2023/03/09 12:21:07;;;;;;;6.28;2.55;;;;;;;;;;5130401;27;20037;-44
2023/03/09 12:23:44;;;;;;;6.47;2.85;;;;;;;;;;5113173;27;20399;-43
2023/03/09 12:26:13;;;;;;;5.63;1.90;;;;;;;;;;5126637;27;20031;-44
2023/03/09 12:28:40;;;;;;;5.28;2.28;;;;;;;;;;5131208;27;20087;-44
2023/03/09 12:31:26;;;;;;;3.53;2.40;;;;;;;;;;5130990;27;20025;-46
2023/03/09 12:33:58;;;;;;;4.50;2.13;;;;;;;;;;5130659;27;20062;-44
2023/03/09 12:36:28;;;;;;;5.32;2.30;;;;;;;;;;5131097;27;20076;-47
2023/03/09 12:39:13;;;;;;;4.30;2.30;;;;;;;;;;5131122;27;20104;-45
2023/03/09 12:41:55;;;;;;;5.47;2.72;;;;;;;;;;5129846;27;20035;-47
2023/03/09 12:44:40;;;;;;;4.45;2.03;;;;;;;;;;5131058;27;20035;-44
2023/03/09 12:47:20;;;;;;;5.63;2.30;;;;;;;;;;5129923;27;20027;-46
2023/03/09 12:49:48;;;;;;;8.20;2.85;;;;;;;;;;5131953;27;20485;-46
2023/03/09 12:52:20;;;;;;;6.55;3.10;;;;;;;;;;5130801;27;20050;-48
2023/03/09 12:54:53;;;;;;;6.07;2.63;;;;;;;;;;5131466;27;20056;-44
2023/03/09 12:57:20;;;;;;;4.80;1.88;;;;;;;;;;5130286;27;20834;-46
2023/03/09 12:59:49;;;;;;;4.13;2.20;;;;;;;;;;5131590;27;20038;-47
2023/03/09 13:02:23;;;;;;;3.75;1.80;;;;;;;;;;5130771;27;20098;-45
2023/03/09 13:05:08;;;;;;;4.93;2.00;;;;;;;;;;5131526;27;20115;-45
2023/03/09 13:07:34;;;;;;;4.45;2.03;;;;;;;;;;5117813;27;20027;-46
2023/03/09 13:10:00;;;;;;;5.93;1.85;;;;;;;;;;5130445;27;20757;-46
2023/03/09 13:12:30;;;;;;;4.82;2.40;;;;;;;;;;5129731;27;20023;-44
2023/03/09 13:15:19;;;;;;;4.28;2.03;;;;;;;;;;5129446;27;20031;-44
2023/03/09 13:18:02;;;;;;;4.80;1.90;;;;;;;;;;5134843;27;20075;-47
2023/03/09 13:20:42;;;;;;;3.73;2.00;;;;;;;;;;5129564;27;20043;-46
2023/03/09 13:23:14;;;;;;;3.35;2.00;;;;;;;;;;5126728;27;20448;-45
2023/03/09 13:25:39;;;;;;;5.07;2.60;;;;;;;;;;5132352;27;20019;-45
2023/03/09 13:28:12;;;;;;;4.45;2.13;;;;;;;;;;5133442;27;20027;-46
2023/03/09 13:30:42;;;;;;;5.87;2.33;;;;;;;;;;5128480;27;20051;-44
2023/03/09 13:33:14;;;;;;;4.88;2.58;;;;;;;;;;5128473;27;20098;-46
2023/03/09 13:35:42;;;;;;;5.63;1.95;;;;;;;;;;5129274;27;20019;-46
2023/03/09 13:38:27;;;;;;;4.75;2.20;;;;;;;;;;5128712;27;20258;-46
2023/03/09 13:40:55;;;;;;;3.45;2.60;;;;;;;;;;5128593;27;20413;-48
2023/03/09 13:43:25;;;;;;;4.25;2.00;;;;;;;;;;5128761;27;20061;-47
2023/03/09 13:46:15;;;;;;;6.00;2.15;;;;;;;;;;5128543;27;20027;-47
2023/03/09 13:48:43;;;;;;;6.90;2.30;;;;;;;;;;5128553;27;20035;-48
2023/03/09 13:51:25;;;;;;;3.85;1.95;;;;;;;;;;5128540;27;20058;-46
2023/03/09 13:53:51;;;;;;;4.05;2.22;;;;;;;;;;5128338;27;20030;-45
2023/03/09 13:56:17;;;;;;;4.68;2.13;;;;;;;;;;5129320;27;20095;-45
2023/03/09 13:58:45;;;;;;;3.35;1.83;;;;;;;;;;5128213;27;20075;-47
2023/03/09 14:01:21;;;;;;;4.85;2.00;;;;;;;;;;5127795;27;20019;-45
2023/03/09 14:03:47;;;;;;;5.15;1.92;;;;;;;;;;5129001;27;20504;-44
2023/03/09 14:06:14;;;;;;;4.82;1.77;;;;;;;;;;5128320;27;20034;-47
2023/03/09 14:08:45;;;;;;;3.13;1.55;;;;;;;;;;5128299;27;20906;-46
2023/03/09 14:11:27;;;;;;;3.10;1.42;;;;;;;;;;5128167;27;20619;-45
2023/03/09 14:13:59;;;;;;;3.40;1.48;;;;;;;;;;5089588;28;20490;-44
2023/03/09 14:16:26;;;;;;;3.55;1.88;;;;;;;;;;5117876;27;20023;-45
2023/03/09 14:18:56;;;;;;;3.75;1.50;;;;;;;;;;5128368;27;20075;-46
2023/03/09 14:21:24;;;;;;;1.92;1.33;;;;;;;;;;5123907;27;20026;-44
2023/03/09 14:23:50;;;;;;;2.55;1.23;;;;;;;;;;5121453;27;20145;-45
2023/03/09 14:26:24;;;;;;;2.50;1.30;;;;;;;;;;5128855;27;20258;-45
2023/03/09 14:29:25;;;;;;;5.30;1.70;;;;;;;;;;5128252;27;20034;-43
2023/03/09 14:32:11;;;;;;;3.25;1.65;;;;;;;;;;5013165;28;20049;-46
2023/03/09 14:34:37;;;;;;;2.53;1.40;;;;;;;;;;5116248;27;20043;-45
2023/03/09 14:37:16;;;;;;;2.30;1.15;;;;;;;;;;5128565;27;20457;-47
2023/03/09 14:39:43;;;;;;;2.60;1.35;;;;;;;;;;5127973;27;20031;-48
2023/03/09 14:42:11;;;;;;;2.30;1.15;;;;;;;;;;5127655;27;20069;-45
2023/03/09 14:44:37;;;;;;;2.92;1.30;;;;;;;;;;5127148;27;20034;-47
2023/03/09 14:47:04;;;;;;;1.52;1.00;;;;;;;;;;5127825;27;20019;-48
2023/03/09 14:49:31;;;;;;;1.73;0.90;;;;;;;;;;5128050;27;20505;-45
2023/03/09 14:51:57;;;;;;;3.42;1.00;;;;;;;;;;5127098;27;20015;-47
2023/03/09 14:54:24;;;;;;;2.13;0.98;;;;;;;;;;5127541;27;20418;-49
2023/03/09 14:56:50;;;;;;;3.63;1.10;;;;;;;;;;5123088;27;20076;-45
2023/03/09 14:59:20;;;;;;;3.30;1.10;;;;;;;;;;5128215;27;20580;-44
2023/03/09 15:01:54;;;;;;;3.00;1.20;;;;;;;;;;5128087;27;20158;-47
2023/03/09 15:04:21;;;;;;;1.48;0.90;;;;;;;;;;5127107;27;20035;-44
2023/03/09 15:06:50;;;;;;;2.58;1.00;;;;;;;;;;5107896;28;20024;-45
2023/03/09 15:09:16;;;;;;;2.65;0.80;;;;;;;;;;5107300;28;20064;-45
2023/03/09 15:11:43;;;;;;;3.17;1.10;;;;;;;;;;5116822;27;20468;-46
2023/03/09 15:14:11;;;;;;;2.17;1.00;;;;;;;;;;5128634;27;20137;-44
2023/03/09 15:16:37;;;;;;;2.00;0.95;;;;;;;;;;5124345;27;20426;-47
2023/03/09 15:19:03;;;;;;;1.77;0.90;;;;;;;;;;5118051;27;20379;-46
2023/03/09 15:21:29;;;;;;;1.65;0.95;;;;;;;;;;5124919;27;20027;-45
2023/03/09 15:23:55;;;;;;;1.42;0.75;;;;;;;;;;5121767;27;20383;-45
2023/03/09 15:26:22;;;;;;;1.35;0.80;;;;;;;;;;5120132;27;20029;-47
2023/03/09 15:28:48;;;;;;;4.45;1.55;;;;;;;;;;5125467;28;20023;-46
2023/03/09 15:31:14;;;;;;;1.55;0.80;;;;;;;;;;5125424;28;20025;-46
2023/03/09 15:33:40;;;;;;;1.38;0.80;;;;;;;;;;5126240;28;20131;-46
2023/03/09 15:36:09;;;;;;;3.10;0.70;;;;;;;;;;5124863;28;20393;-44
2023/03/09 15:38:35;;;;;;;2.83;0.90;;;;;;;;;;5124575;28;20091;-46
2023/03/09 15:41:01;;;;;;;1.95;0.90;;;;;;;;;;5124433;28;20027;-46
2023/03/09 15:43:28;;;;;;;1.58;0.88;;;;;;;;;;5126627;27;20031;-45
2023/03/09 15:45:54;;;;;;;0.98;0.70;;;;;;;;;;5125370;28;20019;-49
2023/03/09 15:48:20;;;;;;;1.27;0.70;;;;;;;;;;5122491;28;20529;-46
2023/03/09 15:50:50;;;;;;;1.13;0.77;;;;;;;;;;5127730;28;20855;-45
2023/03/09 15:53:16;;;;;;;1.65;0.80;;;;;;;;;;5126984;28;20463;-47
2023/03/09 15:55:42;;;;;;;1.23;0.70;;;;;;;;;;5107366;28;20019;-46
2023/03/09 15:58:08;;;;;;;1.67;0.90;;;;;;;;;;5124826;27;20479;-46
2023/03/09 16:00:34;;;;;;;3.03;1.20;;;;;;;;;;5125112;28;20042;-47
2023/03/09 16:03:01;;;;;;;2.15;1.00;;;;;;;;;;5126469;28;20027;-45
2023/03/09 16:05:28;;;;;;;5.03;1.40;;;;;;;;;;5121595;28;20025;-48
2023/03/09 16:07:54;;;;;;;3.30;0.80;;;;;;;;;;5118511;27;20062;-45
2023/03/09 16:10:21;;;;;;;2.65;0.98;;;;;;;;;;5123849;28;20385;-45
2023/03/09 16:12:48;;;;;;;2.25;1.00;;;;;;;;;;5122404;28;20065;-46
2023/03/09 16:15:14;;;;;;;3.63;2.00;;;;;;;;;;5124886;27;20019;-50
2023/03/09 16:17:40;;;;;;;3.85;1.90;;;;;;;;;;5122307;27;20498;-46
2023/03/09 16:20:14;;;;;;;5.38;1.90;;;;;;;;;;5106022;28;20562;-48
2023/03/09 16:22:42;;;;;;;4.03;1.60;;;;;;;;;;5123354;27;20035;-47
2023/03/09 16:25:09;;;;;;;3.10;1.58;;;;;;;;;;5125019;27;20038;-46
2023/03/09 16:27:35;;;;;;;2.78;1.08;;;;;;;;;;5128990;27;20031;-46
2023/03/09 16:30:01;;;;;;;3.10;1.20;;;;;;;;;;5129394;27;20046;-46
2023/03/09 16:32:27;;;;;;;1.55;1.08;;;;;;;;;;5130136;27;20031;-48
2023/03/09 16:34:53;;;;;;;1.23;0.95;;;;;;;;;;5121571;27;20020;-49
2023/03/09 16:37:19;;;;;;;2.28;1.20;;;;;;;;;;5109756;27;20538;-46
2023/03/09 16:39:45;;;;;;;1.48;1.00;;;;;;;;;;5129728;27;20424;-47
2023/03/09 16:42:11;;;;;;;1.88;1.08;;;;;;;;;;5130705;27;20038;-47
2023/03/09 16:44:38;;;;;;;3.08;1.20;;;;;;;;;;5124981;27;20044;-48
2023/03/09 16:47:06;;;;;;;3.67;1.55;;;;;;;;;;5130142;27;20494;-47
2023/03/09 16:49:33;;;;;;;2.65;1.55;;;;;;;;;;5130100;27;20109;-46
2023/03/09 16:52:01;;;;;;;1.80;1.20;;;;;;;;;;5129985;27;20423;-48
2023/03/09 16:54:27;;;;;;;2.25;1.30;;;;;;;;;;5127602;27;20098;-47
2023/03/09 16:56:53;;;;;;;1.48;1.00;;;;;;;;;;5130121;27;20038;-48
2023/03/09 16:59:19;;;;;;;3.92;1.60;;;;;;;;;;5130037;27;20478;-49
2023/03/09 17:01:45;;;;;;;2.75;1.80;;;;;;;;;;5129472;27;20510;-50
2023/03/09 17:04:11;;;;;;;2.92;2.22;;;;;;;;;;5129819;27;20028;-50
2023/03/09 17:06:37;;;;;;;3.95;2.30;;;;;;;;;;5129773;27;20104;-46
2023/03/09 17:09:04;;;;;;;4.15;2.20;;;;;;;;;;5128377;27;20035;-46
2023/03/09 17:11:31;;;;;;;3.92;2.03;;;;;;;;;;5127894;27;20027;-50
2023/03/09 17:13:57;;;;;;;3.03;1.98;;;;;;;;;;5124330;27;20038;-49
2023/03/09 17:16:23;;;;;;;4.43;2.30;;;;;;;;;;5129318;27;20470;-48
2023/03/09 17:18:49;;;;;;;3.35;2.28;;;;;;;;;;5130298;27;20031;-48
2023/03/09 17:21:16;;;;;;;3.92;2.50;;;;;;;;;;5130469;27;20030;-48
2023/03/09 17:23:42;;;;;;;2.83;1.75;;;;;;;;;;5129835;27;20057;-48
2023/03/09 17:26:08;;;;;;;2.78;1.60;;;;;;;;;;5129942;27;20031;-46
2023/03/09 17:28:36;;;;;;;3.92;1.77;;;;;;;;;;5129305;27;20023;-46
2023/03/09 17:31:02;;;;;;;3.83;2.00;;;;;;;;;;5128419;27;20034;-50
2023/03/09 17:33:28;;;;;;;3.97;2.13;;;;;;;;;;5128086;27;20015;-47
2023/03/09 17:35:54;;;;;;;3.08;1.55;;;;;;;;;;5133061;27;20035;-47
2023/03/09 17:38:20;;;;;;;3.40;1.90;;;;;;;;;;5127144;27;20030;-50
2023/03/09 17:40:49;;;;;;;3.03;1.58;;;;;;;;;;5127593;27;20031;-48
2023/03/09 17:43:15;;;;;;;3.13;1.80;;;;;;;;;;5125994;27;20356;-49
2023/03/09 17:45:41;;;;;;;4.60;1.92;;;;;;;;;;5126951;27;20129;-47
2023/03/09 17:48:07;;;;;;;4.85;1.85;;;;;;;;;;5127878;27;20147;-48
2023/03/09 17:50:34;;;;;;;2.40;1.30;;;;;;;;;;5140108;27;20368;-46
2023/03/09 17:53:00;;;;;;;4.22;1.58;;;;;;;;;;5129489;27;20518;-47
2023/03/09 17:55:26;;;;;;;3.60;1.67;;;;;;;;;;5125055;27;20048;-48
2023/03/09 17:57:52;;;;;;;5.95;1.65;;;;;;;;;;5126215;27;20066;-47
2023/03/09 18:00:18;;;;;;;5.53;2.13;;;;;;;;;;5126820;27;20458;-49
2023/03/09 18:02:44;;;;;;;2.95;1.67;;;;;;;;;;5125359;27;20041;-49
2023/03/09 18:05:10;;;;;;;3.28;1.98;;;;;;;;;;5126257;27;20247;-46
2023/03/09 18:07:36;;;;;;;6.15;2.08;;;;;;;;;;5125899;27;20035;-46
2023/03/09 18:10:02;;;;;;;4.13;1.77;;;;;;;;;;5134875;27;20497;-47
2023/03/09 18:12:29;;;;;;;5.13;2.22;;;;;;;;;;5131217;27;20482;-48
2023/03/09 18:14:55;;;;;;;3.28;1.95;;;;;;;;;;5126395;27;20023;-50
2023/03/09 18:17:21;;;;;;;5.20;2.05;;;;;;;;;;5126674;27;20494;-50
2023/03/09 18:19:50;;;;;;;5.15;2.13;;;;;;;;;;5128626;27;20023;-47
2023/03/09 18:22:16;;;;;;;4.47;2.17;;;;;;;;;;5127061;27;20521;-49
2023/03/09 18:24:42;;;;;;;5.32;2.75;;;;;;;;;;5127549;27;20027;-49
2023/03/09 18:27:12;;;;;;;3.97;2.08;;;;;;;;;;5126535;27;20118;-48
2023/03/09 18:29:38;;;;;;;3.55;1.67;;;;;;;;;;5125845;27;20134;-46
2023/03/09 18:32:04;;;;;;;5.35;2.10;;;;;;;;;;5126562;27;20023;-47
2023/03/09 18:34:31;;;;;;;6.43;2.47;;;;;;;;;;5125866;27;20530;-50
2023/03/09 18:36:57;;;;;;;5.03;2.58;;;;;;;;;;5127062;27;20030;-48
2023/03/09 18:39:23;;;;;;;4.57;2.17;;;;;;;;;;5126082;27;20565;-48
2023/03/09 18:41:49;;;;;;;6.00;2.55;;;;;;;;;;5127028;27;20027;-48
2023/03/09 18:44:15;;;;;;;7.55;2.70;;;;;;;;;;5126545;27;20497;-47
2023/03/09 18:46:41;;;;;;;5.65;2.65;;;;;;;;;;5124853;27;20066;-50
2023/03/09 18:49:07;;;;;;;6.90;2.45;;;;;;;;;;5126025;27;20039;-47
2023/03/09 18:51:33;;;;;;;6.50;2.60;;;;;;;;;;5125886;27;20076;-48
2023/03/09 18:53:59;;;;;;;6.82;2.80;;;;;;;;;;5134289;27;20441;-48
2023/03/09 18:56:25;;;;;;;6.28;2.47;;;;;;;;;;5130188;27;20423;-47
2023/03/09 18:58:54;;;;;;;6.50;3.38;;;;;;;;;;5125409;27;20035;-49
2023/03/09 19:01:21;;;;;;;6.22;2.63;;;;;;;;;;5126523;27;20091;-48
2023/03/09 19:03:47;;;;;;;5.88;2.58;;;;;;;;;;5125762;27;20027;-48
2023/03/09 19:06:15;;;;;;;5.60;2.45;;;;;;;;;;5125014;27;20026;-46
2023/03/09 19:08:41;;;;;;;6.25;2.22;;;;;;;;;;5123516;27;20027;-46
2023/03/09 19:11:08;;;;;;;5.75;2.45;;;;;;;;;;5121793;27;20505;-50
2023/03/09 19:13:34;;;;;;;5.55;2.25;;;;;;;;;;5123439;27;20515;-47
2023/03/09 19:16:01;;;;;;;5.78;2.53;;;;;;;;;;5123997;27;20019;-50
2023/03/09 19:18:27;;;;;;;7.72;2.22;;;;;;;;;;5122781;27;20022;-47
2023/03/09 19:20:54;;;;;;;4.90;2.25;;;;;;;;;;5122334;27;20034;-46
2023/03/09 19:23:20;;;;;;;6.32;2.50;;;;;;;;;;5122680;27;20031;-48
2023/03/09 19:25:53;;;;;;;7.63;2.42;;;;;;;;;;5124009;27;20474;-51
2023/03/09 19:28:20;;;;;;;6.63;2.45;;;;;;;;;;5119138;28;20571;-48
2023/03/09 19:30:46;;;;;;;10.27;3.95;;;;;;;;;;5124199;27;20039;-49
2023/03/09 19:33:12;;;;;;;6.38;3.17;;;;;;;;;;5122076;28;20030;-47
2023/03/09 19:35:38;;;;;;;7.40;2.85;;;;;;;;;;5124222;27;20583;-51
2023/03/09 19:38:06;;;;;;;6.10;2.60;;;;;;;;;;5123568;27;20027;-47
2023/03/09 19:40:32;;;;;;;5.40;2.40;;;;;;;;;;5124523;28;20019;-47
2023/03/09 19:42:59;;;;;;;9.38;2.95;;;;;;;;;;5124534;28;20027;-49
2023/03/09 19:45:26;;;;;;;5.00;1.92;;;;;;;;;;5121564;28;20031;-49
2023/03/09 19:47:52;;;;;;;5.80;2.30;;;;;;;;;;5124645;27;20055;-48
2023/03/09 19:50:19;;;;;;;5.85;2.25;;;;;;;;;;5125208;28;20346;-49
2023/03/09 19:52:45;;;;;;;7.00;2.55;;;;;;;;;;5120369;28;20026;-46
2023/03/09 19:55:11;;;;;;;7.25;2.20;;;;;;;;;;5124197;28;20030;-48